Time;durP1;ratioP1;P1;durP2;ratioP2;P2;SDS_P1;SDS_P2;PMS_P1;PMS_P2;Temp;Humidity;BMP_temperature;BMP_pressure;BME280_temperature;BME280_humidity;BME280_pressure;Samples;Min_cycle;Max_cycle;Signal;HPM_P1;HPM_P2
2022/07/22 00:01:56;;;;;;;7.95;1.30;;;18.20;99.90;;;;;;5041444;28;20071;-58
2022/07/22 00:04:21;;;;;;;10.38;1.50;;;18.10;99.90;;;;;;5029557;28;20025;-58
2022/07/22 00:06:47;;;;;;;5.35;1.40;;;18.00;99.90;;;;;;5030601;28;20025;-59
2022/07/22 00:09:13;;;;;;;7.47;1.17;;;18.10;99.90;;;;;;5029130;28;20035;-58
2022/07/22 00:11:38;;;;;;;14.57;1.77;;;18.10;99.90;;;;;;5044713;28;20078;-58
2022/07/22 00:14:04;;;;;;;7.10;1.55;;;18.00;99.90;;;;;;5036058;28;20022;-59
2022/07/22 00:16:30;;;;;;;9.98;1.42;;;18.10;99.90;;;;;;5028610;28;20030;-58
2022/07/22 00:18:56;;;;;;;9.27;1.30;;;18.00;99.90;;;;;;5033947;28;20025;-57
2022/07/22 00:21:21;;;;;;;8.18;0.90;;;18.00;99.90;;;;;;5026621;28;20037;-58
2022/07/22 00:23:47;;;;;;;7.40;2.10;;;17.90;99.90;;;;;;5042717;28;20037;-59
2022/07/22 00:26:13;;;;;;;8.18;1.77;;;17.90;99.90;;;;;;5052606;28;20036;-59
2022/07/22 00:28:38;;;;;;;6.57;1.45;;;17.80;99.90;;;;;;5031730;28;20025;-57
2022/07/22 00:31:05;;;;;;;7.93;1.50;;;17.80;99.90;;;;;;5039390;28;20033;-58
2022/07/22 00:33:30;;;;;;;14.13;2.08;;;17.80;99.90;;;;;;5035413;28;20065;-62
2022/07/22 00:35:56;;;;;;;9.27;1.52;;;17.70;99.90;;;;;;5040884;28;20090;-59
2022/07/22 00:38:22;;;;;;;7.07;1.63;;;17.70;99.90;;;;;;5039186;28;20029;-59
2022/07/22 00:40:47;;;;;;;5.78;1.10;;;17.60;99.90;;;;;;5045277;28;20017;-59
2022/07/22 00:43:16;;;;;;;18.52;1.13;;;17.70;99.90;;;;;;5031278;28;20061;-59
2022/07/22 00:45:42;;;;;;;8.52;1.42;;;17.60;99.90;;;;;;5033873;28;20115;-60
2022/07/22 00:48:08;;;;;;;5.55;1.40;;;17.60;99.90;;;;;;5033981;28;20112;-58
2022/07/22 00:50:34;;;;;;;9.05;1.55;;;17.50;99.90;;;;;;5036982;28;20542;-58
2022/07/22 00:53:00;;;;;;;8.73;1.35;;;17.50;99.90;;;;;;5034028;28;20017;-58
2022/07/22 00:55:27;;;;;;;7.72;2.22;;;17.60;99.90;;;;;;5036479;28;20034;-59
2022/07/22 00:57:53;;;;;;;8.30;1.63;;;17.50;99.90;;;;;;5027678;28;20484;-59
2022/07/22 01:00:21;;;;;;;7.60;1.38;;;17.50;99.90;;;;;;5036689;28;20031;-59
2022/07/22 01:02:46;;;;;;;8.68;1.35;;;17.50;99.90;;;;;;5036508;28;20033;-60
2022/07/22 01:05:12;;;;;;;10.15;1.50;;;17.50;99.90;;;;;;5045542;28;20524;-59
2022/07/22 01:07:39;;;;;;;7.93;1.23;;;17.60;99.90;;;;;;5036658;28;20596;-59
2022/07/22 01:10:07;;;;;;;8.43;1.45;;;17.70;99.90;;;;;;5034020;28;20061;-59
2022/07/22 01:12:33;;;;;;;9.30;1.33;;;17.80;99.90;;;;;;5033218;28;20025;-59
2022/07/22 01:14:59;;;;;;;5.43;1.30;;;17.70;99.90;;;;;;5041623;28;20078;-59
2022/07/22 01:17:25;;;;;;;8.40;1.20;;;17.80;99.90;;;;;;5034417;28;20030;-59
2022/07/22 01:19:50;;;;;;;8.35;1.50;;;17.60;99.90;;;;;;5034876;28;20030;-59
2022/07/22 01:22:16;;;;;;;5.57;1.52;;;17.70;99.90;;;;;;5036579;28;20429;-59
2022/07/22 01:24:42;;;;;;;4.88;1.30;;;17.70;99.90;;;;;;5036580;28;20421;-59
2022/07/22 01:27:08;;;;;;;6.25;1.40;;;17.70;99.90;;;;;;5036079;28;20366;-59
2022/07/22 01:29:34;;;;;;;7.20;1.42;;;17.70;99.90;;;;;;5036272;28;20884;-59
2022/07/22 01:32:00;;;;;;;8.40;1.40;;;17.70;99.90;;;;;;5041363;28;20469;-59
2022/07/22 01:34:25;;;;;;;7.70;1.30;;;17.60;99.90;;;;;;5038867;28;20476;-58
2022/07/22 01:36:51;;;;;;;5.28;1.33;;;17.60;99.90;;;;;;5036803;28;20025;-58
2022/07/22 01:39:17;;;;;;;9.25;1.40;;;17.60;99.90;;;;;;5038650;28;20052;-58
2022/07/22 01:41:43;;;;;;;11.77;1.42;;;17.60;99.90;;;;;;5031330;28;20021;-58
2022/07/22 01:44:09;;;;;;;7.50;1.27;;;17.60;99.90;;;;;;5038132;28;20039;-58
2022/07/22 01:46:35;;;;;;;8.70;1.50;;;17.60;99.90;;;;;;5043999;28;20785;-58
2022/07/22 01:49:00;;;;;;;10.98;1.50;;;17.50;99.90;;;;;;5034367;28;20033;-57
2022/07/22 01:51:26;;;;;;;7.68;1.05;;;17.30;99.90;;;;;;5035700;28;20037;-57
2022/07/22 01:53:52;;;;;;;6.70;1.55;;;17.30;99.90;;;;;;5032105;28;20022;-57
2022/07/22 01:56:19;;;;;;;6.13;1.10;;;17.20;99.90;;;;;;5020011;28;20421;-58
2022/07/22 01:58:45;;;;;;;12.13;1.60;;;17.10;99.90;;;;;;5034020;28;20077;-57
2022/07/22 02:01:11;;;;;;;8.18;1.40;;;17.10;99.90;;;;;;5037669;28;20025;-58
2022/07/22 02:03:37;;;;;;;7.60;1.50;;;17.20;99.90;;;;;;5030791;28;20025;-58
2022/07/22 02:06:03;;;;;;;8.15;1.80;;;17.20;99.90;;;;;;5040699;28;20033;-57
2022/07/22 02:08:29;;;;;;;10.82;2.13;;;17.20;99.90;;;;;;5033155;28;20025;-58
2022/07/22 02:10:54;;;;;;;7.05;1.30;;;17.20;99.90;;;;;;5032477;28;20040;-58
2022/07/22 02:13:20;;;;;;;5.75;1.20;;;17.30;99.90;;;;;;5026852;28;20025;-57
2022/07/22 02:15:46;;;;;;;5.90;1.20;;;17.30;99.90;;;;;;5033659;28;20048;-59
2022/07/22 02:18:18;;;;;;;10.30;1.55;;;17.30;99.90;;;;;;5062851;28;20116;-59
2022/07/22 02:20:45;;;;;;;3.55;1.17;;;17.30;99.90;;;;;;5026436;28;20111;-59
2022/07/22 02:23:11;;;;;;;9.80;1.20;;;17.30;99.90;;;;;;5039914;28;20134;-59
2022/07/22 02:25:37;;;;;;;7.63;1.67;;;17.40;99.90;;;;;;5041081;28;20059;-60
2022/07/22 02:28:03;;;;;;;9.93;1.20;;;17.40;99.90;;;;;;5038889;28;20585;-60
2022/07/22 02:30:30;;;;;;;8.40;1.58;;;17.40;99.90;;;;;;5029207;28;20030;-58
2022/07/22 02:32:56;;;;;;;5.30;1.25;;;17.40;99.90;;;;;;5041633;28;20025;-58
2022/07/22 02:35:22;;;;;;;5.53;1.83;;;17.30;99.90;;;;;;5033816;28;20033;-58
2022/07/22 02:37:48;;;;;;;7.38;1.08;;;17.30;99.90;;;;;;5034423;28;20025;-59
2022/07/22 02:40:13;;;;;;;5.38;1.45;;;17.20;99.90;;;;;;5036389;28;20057;-58
2022/07/22 02:42:39;;;;;;;5.13;1.40;;;17.10;99.90;;;;;;5029238;28;20049;-60
2022/07/22 02:45:06;;;;;;;5.40;1.35;;;17.10;99.90;;;;;;5038477;28;20021;-59
2022/07/22 02:47:32;;;;;;;5.25;1.30;;;17.10;99.90;;;;;;5035309;28;20056;-59
2022/07/22 02:49:58;;;;;;;9.02;1.20;;;17.00;99.90;;;;;;5032243;28;20037;-59
2022/07/22 02:52:24;;;;;;;7.97;1.38;;;17.00;99.90;;;;;;5028618;28;20028;-59
2022/07/22 02:54:50;;;;;;;10.20;1.20;;;17.00;99.90;;;;;;5042650;28;20047;-59
2022/07/22 02:57:16;;;;;;;9.85;1.77;;;17.00;99.90;;;;;;5036551;28;20021;-59
2022/07/22 02:59:41;;;;;;;6.78;1.33;;;16.90;99.90;;;;;;5038233;28;20465;-59
2022/07/22 03:02:07;;;;;;;6.78;1.27;;;16.90;99.90;;;;;;5044112;28;20116;-59
2022/07/22 03:04:33;;;;;;;3.47;1.05;;;16.90;99.90;;;;;;5021962;28;20035;-59
2022/07/22 03:06:59;;;;;;;8.82;1.40;;;16.90;99.90;;;;;;5029427;28;20465;-60
2022/07/22 03:09:25;;;;;;;9.40;1.52;;;16.80;99.90;;;;;;5031953;28;20021;-59
2022/07/22 03:11:50;;;;;;;12.30;1.30;;;16.70;99.90;;;;;;5030196;28;20338;-58
2022/07/22 03:14:18;;;;;;;6.80;1.23;;;16.80;99.90;;;;;;5039278;28;20017;-59
2022/07/22 03:16:44;;;;;;;8.13;2.10;;;16.70;99.90;;;;;;5035900;28;20052;-59
2022/07/22 03:19:10;;;;;;;8.10;1.30;;;16.70;99.90;;;;;;5031955;28;20461;-59
2022/07/22 03:21:35;;;;;;;6.95;1.42;;;16.70;99.90;;;;;;5034978;28;20044;-59
2022/07/22 03:24:01;;;;;;;8.32;1.20;;;16.70;99.90;;;;;;5036211;28;20476;-59
2022/07/22 03:26:27;;;;;;;7.65;1.40;;;16.80;99.90;;;;;;5035272;28;20559;-59
2022/07/22 03:28:52;;;;;;;7.80;1.25;;;16.80;99.90;;;;;;5035038;28;20120;-59
2022/07/22 03:31:18;;;;;;;4.93;0.88;;;16.80;99.90;;;;;;5041027;28;20392;-59
2022/07/22 03:33:43;;;;;;;8.18;1.08;;;16.80;99.90;;;;;;5034201;28;20473;-59
2022/07/22 03:36:09;;;;;;;7.75;1.33;;;16.80;99.90;;;;;;5036743;28;20033;-60
2022/07/22 03:38:36;;;;;;;7.05;1.50;;;16.80;99.90;;;;;;5034485;28;20029;-57
2022/07/22 03:41:03;;;;;;;6.25;1.75;;;16.80;99.90;;;;;;5035978;28;20033;-57
2022/07/22 03:43:29;;;;;;;7.22;1.42;;;16.80;99.90;;;;;;5025450;22;20096;-58
2022/07/22 03:45:55;;;;;;;4.93;1.30;;;16.70;99.90;;;;;;5007100;28;20025;-59
2022/07/22 03:48:20;;;;;;;8.90;1.63;;;16.80;99.90;;;;;;5009286;28;20117;-59
2022/07/22 03:50:46;;;;;;;9.15;1.60;;;16.70;99.90;;;;;;5013808;28;20517;-59
2022/07/22 03:53:12;;;;;;;7.18;1.67;;;16.70;99.90;;;;;;5022465;28;20049;-58
2022/07/22 03:55:37;;;;;;;4.50;1.33;;;16.60;99.90;;;;;;5015579;28;20037;-57
2022/07/22 03:58:03;;;;;;;4.63;1.15;;;16.60;99.90;;;;;;5016617;28;20082;-59
2022/07/22 04:00:29;;;;;;;5.88;1.50;;;16.60;99.90;;;;;;5008484;28;20022;-58
2022/07/22 04:02:55;;;;;;;7.25;1.20;;;16.50;99.90;;;;;;5016041;28;20047;-59
2022/07/22 04:05:20;;;;;;;6.07;1.25;;;16.50;99.90;;;;;;5012070;28;20026;-59
2022/07/22 04:07:46;;;;;;;6.20;2.45;;;16.50;99.90;;;;;;5020082;28;20037;-58
2022/07/22 04:10:12;;;;;;;7.68;1.55;;;16.40;99.90;;;;;;5022482;28;20030;-58
2022/07/22 04:12:39;;;;;;;6.47;1.27;;;16.40;99.90;;;;;;5017099;28;20108;-58
2022/07/22 04:15:07;;;;;;;7.97;1.70;;;16.40;99.90;;;;;;5013450;28;20041;-58
2022/07/22 04:17:33;;;;;;;10.18;1.65;;;16.40;99.90;;;;;;5019201;28;20037;-59
2022/07/22 04:20:00;;;;;;;11.63;1.38;;;16.40;99.90;;;;;;5022135;28;20030;-59
2022/07/22 04:22:26;;;;;;;3.55;1.50;;;16.40;99.90;;;;;;5021237;28;20026;-60
2022/07/22 04:24:52;;;;;;;9.27;1.45;;;16.40;99.90;;;;;;5021501;28;20036;-60
2022/07/22 04:27:18;;;;;;;6.97;1.25;;;16.30;99.90;;;;;;5024945;28;20780;-59
2022/07/22 04:29:43;;;;;;;3.47;1.52;;;16.40;99.90;;;;;;5019453;28;20037;-59
2022/07/22 04:32:09;;;;;;;7.82;1.13;;;16.40;99.90;;;;;;5013975;28;20100;-58
2022/07/22 04:34:35;;;;;;;7.35;1.30;;;16.40;99.90;;;;;;5021972;28;20030;-58
2022/07/22 04:37:00;;;;;;;5.90;1.17;;;16.50;99.90;;;;;;5022065;28;20032;-64
2022/07/22 04:39:26;;;;;;;8.40;1.50;;;16.40;99.90;;;;;;5025915;28;20025;-59
2022/07/22 04:41:52;;;;;;;7.40;1.25;;;16.50;99.90;;;;;;5012111;28;20092;-60
2022/07/22 04:44:17;;;;;;;6.45;1.38;;;16.50;99.90;;;;;;5019911;28;20022;-58
2022/07/22 04:46:43;;;;;;;7.80;1.52;;;16.50;99.90;;;;;;5021040;28;20397;-59
2022/07/22 04:49:09;;;;;;;7.75;1.52;;;16.60;99.90;;;;;;5017314;28;20026;-58
2022/07/22 04:51:34;;;;;;;6.90;1.65;;;16.60;99.90;;;;;;5017207;28;20957;-59
2022/07/22 04:54:00;;;;;;;3.85;1.30;;;16.60;99.90;;;;;;5013077;28;20425;-59
2022/07/22 04:56:26;;;;;;;7.18;2.22;;;16.60;99.90;;;;;;5015175;28;20439;-59
2022/07/22 04:58:52;;;;;;;7.90;1.40;;;16.60;99.90;;;;;;5020848;28;20546;-61
2022/07/22 05:01:17;;;;;;;6.60;1.27;;;16.60;99.90;;;;;;5019206;28;20505;-59
2022/07/22 05:03:43;;;;;;;6.78;1.45;;;16.70;99.90;;;;;;5013189;28;20083;-60
2022/07/22 05:06:09;;;;;;;9.23;1.52;;;16.80;99.90;;;;;;5020223;28;20386;-59
2022/07/22 05:08:35;;;;;;;8.40;1.35;;;16.70;99.90;;;;;;5018183;28;20378;-59
2022/07/22 05:11:01;;;;;;;9.95;1.40;;;16.80;99.90;;;;;;5012989;28;20494;-60
2022/07/22 05:13:26;;;;;;;5.93;1.42;;;16.80;99.90;;;;;;5012028;28;20045;-60
2022/07/22 05:15:52;;;;;;;9.35;1.90;;;16.90;99.90;;;;;;5007960;28;20148;-59
2022/07/22 05:18:18;;;;;;;4.45;1.17;;;16.90;99.90;;;;;;5013085;28;20026;-59
2022/07/22 05:20:43;;;;;;;7.90;1.20;;;16.90;99.90;;;;;;5013130;28;20501;-60
2022/07/22 05:23:09;;;;;;;11.10;1.63;;;17.00;99.90;;;;;;5017735;28;20108;-59
2022/07/22 05:25:35;;;;;;;6.57;1.27;;;17.00;99.90;;;;;;5010543;28;20409;-59
2022/07/22 05:28:01;;;;;;;6.03;1.17;;;17.10;99.90;;;;;;5021350;28;20013;-58
2022/07/22 05:30:26;;;;;;;4.35;1.35;;;17.10;99.90;;;;;;5012458;28;20042;-59
2022/07/22 05:32:53;;;;;;;5.97;1.95;;;17.20;99.90;;;;;;5008933;28;20044;-59
2022/07/22 05:35:19;;;;;;;5.40;1.30;;;17.30;99.90;;;;;;5011194;28;20378;-59
2022/07/22 05:37:45;;;;;;;8.55;1.45;;;17.30;99.90;;;;;;5013065;28;20022;-59
2022/07/22 05:40:11;;;;;;;6.25;1.27;;;17.40;99.90;;;;;;5015831;28;20395;-59
2022/07/22 05:42:37;;;;;;;3.90;1.33;;;17.50;99.90;;;;;;5019554;28;20121;-59
2022/07/22 05:45:03;;;;;;;7.03;1.58;;;17.70;99.90;;;;;;5013142;28;20060;-59
2022/07/22 05:47:28;;;;;;;8.95;2.47;;;17.80;99.90;;;;;;5011456;28;20430;-59
2022/07/22 05:49:54;;;;;;;11.82;2.08;;;17.90;99.90;;;;;;5010091;28;20038;-59
2022/07/22 05:52:20;;;;;;;6.05;1.83;;;18.00;99.90;;;;;;5011284;28;20100;-59
2022/07/22 05:54:46;;;;;;;7.20;1.13;;;18.00;99.90;;;;;;5006607;28;20030;-60
2022/07/22 05:57:12;;;;;;;6.82;1.40;;;18.10;99.90;;;;;;5002854;28;20084;-60
2022/07/22 05:59:37;;;;;;;7.15;1.60;;;18.20;99.90;;;;;;5014927;28;20474;-58
2022/07/22 06:02:04;;;;;;;7.75;1.58;;;18.30;99.90;;;;;;5018712;28;20493;-60
2022/07/22 06:04:29;;;;;;;10.13;1.80;;;18.20;99.90;;;;;;5012648;28;20084;-59
2022/07/22 06:06:55;;;;;;;8.40;1.42;;;18.30;99.90;;;;;;5017883;28;20019;-59
2022/07/22 06:09:21;;;;;;;5.72;1.10;;;18.50;99.90;;;;;;5017357;28;20040;-59
2022/07/22 06:11:47;;;;;;;10.40;1.77;;;18.50;99.90;;;;;;5011900;28;20033;-59
2022/07/22 06:14:12;;;;;;;7.32;1.67;;;18.60;99.90;;;;;;5013398;28;20112;-59
2022/07/22 06:16:38;;;;;;;10.88;1.83;;;18.50;99.90;;;;;;5012125;28;20060;-58
2022/07/22 06:19:04;;;;;;;5.18;1.48;;;18.50;99.90;;;;;;5017218;28;20022;-58
2022/07/22 06:21:29;;;;;;;5.65;1.98;;;18.50;99.90;;;;;;5014336;28;20478;-58
2022/07/22 06:23:55;;;;;;;6.72;1.52;;;18.60;99.90;;;;;;5006183;28;20030;-59
2022/07/22 06:26:21;;;;;;;10.95;1.80;;;18.60;99.90;;;;;;5011858;28;20040;-59
2022/07/22 06:28:46;;;;;;;6.18;1.88;;;18.60;99.90;;;;;;5011973;28;20038;-58
2022/07/22 06:31:12;;;;;;;6.40;1.80;;;18.70;99.90;;;;;;5014996;28;20065;-59
2022/07/22 06:33:38;;;;;;;6.55;1.60;;;18.60;99.90;;;;;;5014835;28;20034;-59
2022/07/22 06:36:04;;;;;;;7.30;1.52;;;18.60;99.90;;;;;;5006883;28;20145;-58
2022/07/22 06:38:30;;;;;;;6.78;1.40;;;18.60;99.90;;;;;;5018897;28;20057;-58
2022/07/22 06:40:56;;;;;;;7.78;1.70;;;18.60;99.90;;;;;;5019174;28;20450;-58
2022/07/22 06:43:22;;;;;;;8.35;2.65;;;18.60;99.90;;;;;;5015079;28;20505;-59
2022/07/22 06:45:48;;;;;;;5.38;1.35;;;18.60;99.90;;;;;;5015426;28;20176;-58
2022/07/22 06:48:14;;;;;;;7.53;1.70;;;18.70;99.90;;;;;;5008146;28;20022;-58
2022/07/22 06:50:39;;;;;;;11.73;1.83;;;18.60;99.90;;;;;;5009793;28;20402;-58
2022/07/22 06:53:05;;;;;;;8.45;1.40;;;18.70;99.90;;;;;;5003870;28;20032;-59
2022/07/22 06:55:32;;;;;;;6.50;1.58;;;18.80;99.90;;;;;;5017263;28;20061;-61
2022/07/22 06:57:57;;;;;;;9.43;1.77;;;18.80;99.90;;;;;;5017226;28;20026;-59
2022/07/22 07:00:23;;;;;;;6.00;1.73;;;18.90;99.90;;;;;;5020253;28;20032;-59
2022/07/22 07:02:49;;;;;;;9.80;1.80;;;19.00;99.90;;;;;;5014106;28;20033;-59
2022/07/22 07:05:14;;;;;;;7.90;1.38;;;19.10;99.90;;;;;;5015922;28;20442;-63
2022/07/22 07:07:40;;;;;;;9.75;1.40;;;19.20;99.90;;;;;;5014487;28;20033;-58
2022/07/22 07:10:06;;;;;;;6.55;1.65;;;19.20;99.90;;;;;;5015810;28;20132;-59
2022/07/22 07:12:32;;;;;;;8.85;1.15;;;19.40;99.90;;;;;;5012457;28;20117;-59
2022/07/22 07:14:58;;;;;;;6.80;1.20;;;19.70;99.90;;;;;;5010264;28;20600;-58
2022/07/22 07:17:24;;;;;;;7.78;1.27;;;19.90;99.90;;;;;;5006034;28;20478;-58
2022/07/22 07:19:50;;;;;;;10.70;1.75;;;20.00;99.90;;;;;;5008007;28;20105;-59
2022/07/22 07:22:15;;;;;;;6.68;1.20;;;20.30;99.90;;;;;;5023731;28;20120;-59
2022/07/22 07:24:42;;;;;;;10.23;1.83;;;20.40;99.90;;;;;;5006866;28;20045;-59
2022/07/22 07:27:07;;;;;;;8.20;1.30;;;20.50;99.90;;;;;;5008320;28;20369;-58
2022/07/22 07:29:33;;;;;;;8.75;1.33;;;20.50;99.90;;;;;;5021062;28;20553;-58
2022/07/22 07:31:59;;;;;;;6.32;1.67;;;20.40;99.90;;;;;;5014825;28;20097;-58
2022/07/22 07:34:24;;;;;;;10.68;2.00;;;20.50;99.90;;;;;;5006423;28;20018;-59
2022/07/22 07:36:50;;;;;;;5.32;1.13;;;20.30;99.90;;;;;;5008468;28;20552;-59
2022/07/22 07:39:16;;;;;;;7.97;1.45;;;20.20;99.90;;;;;;5011935;28;20394;-59
2022/07/22 07:41:41;;;;;;;7.10;1.60;;;20.10;99.90;;;;;;4991153;28;20374;-58
2022/07/22 07:44:07;;;;;;;6.13;1.20;;;20.00;99.90;;;;;;5004075;28;20502;-59
2022/07/22 07:46:33;;;;;;;8.98;1.48;;;20.10;99.90;;;;;;5020868;28;20374;-59
2022/07/22 07:48:59;;;;;;;6.60;1.27;;;20.10;99.90;;;;;;5007468;28;20048;-59
2022/07/22 07:51:24;;;;;;;3.47;1.13;;;20.10;99.90;;;;;;5008975;28;20073;-59
2022/07/22 07:53:50;;;;;;;6.30;1.25;;;20.00;99.90;;;;;;5006248;28;20060;-60
2022/07/22 07:56:16;;;;;;;4.32;1.40;;;19.90;99.90;;;;;;5004939;28;20029;-58
2022/07/22 07:58:42;;;;;;;7.38;2.17;;;20.00;99.90;;;;;;5008948;28;20030;-60
2022/07/22 08:01:08;;;;;;;9.13;1.23;;;20.10;99.90;;;;;;5008615;28;20090;-59
2022/07/22 08:03:34;;;;;;;7.70;2.42;;;20.10;99.90;;;;;;5008991;28;20069;-59
2022/07/22 08:06:00;;;;;;;8.18;1.45;;;20.30;99.90;;;;;;5014408;28;20068;-60
2022/07/22 08:08:26;;;;;;;4.57;1.15;;;20.40;99.90;;;;;;5001450;28;20037;-59
2022/07/22 08:10:52;;;;;;;4.50;1.20;;;20.40;99.90;;;;;;5013125;28;20041;-59
2022/07/22 08:13:17;;;;;;;4.13;1.15;;;20.30;99.90;;;;;;5003191;28;20029;-58
2022/07/22 08:15:43;;;;;;;5.45;1.23;;;20.30;99.90;;;;;;5006853;28;20482;-59
2022/07/22 08:18:09;;;;;;;6.57;1.38;;;20.00;99.90;;;;;;5013742;28;20049;-59
2022/07/22 08:20:35;;;;;;;10.13;3.28;;;20.00;99.90;;;;;;5008437;28;20042;-59
2022/07/22 08:23:01;;;;;;;7.57;1.30;;;20.00;99.90;;;;;;5014671;28;20033;-60
2022/07/22 08:25:26;;;;;;;9.90;1.45;;;20.10;99.90;;;;;;5009440;28;20188;-59
2022/07/22 08:27:52;;;;;;;5.85;1.35;;;20.10;99.90;;;;;;5002938;28;20030;-59
2022/07/22 08:30:19;;;;;;;6.53;1.88;;;20.30;99.90;;;;;;5006346;28;20113;-58
2022/07/22 08:32:45;;;;;;;6.40;1.48;;;20.50;99.90;;;;;;5008414;28;20112;-59
2022/07/22 08:35:11;;;;;;;4.53;1.23;;;20.60;99.90;;;;;;5013373;28;20029;-59
2022/07/22 08:37:38;;;;;;;12.18;1.90;;;20.50;99.90;;;;;;5006689;28;20109;-59
2022/07/22 08:40:06;;;;;;;7.05;1.65;;;20.80;99.90;;;;;;5011275;23;20054;-59
2022/07/22 08:42:36;;;;;;;6.57;1.40;;;21.20;99.90;;;;;;4990607;28;20421;-57
2022/07/22 08:45:03;;;;;;;9.70;2.22;;;21.70;99.90;;;;;;4996175;28;20026;-59
2022/07/22 08:47:32;;;;;;;10.25;1.90;;;22.00;99.90;;;;;;4993223;28;20029;-59
2022/07/22 08:49:58;;;;;;;6.60;1.40;;;22.50;99.90;;;;;;4991425;28;20379;-60
2022/07/22 08:52:24;;;;;;;6.90;1.80;;;22.60;99.90;;;;;;4996213;28;20037;-58
2022/07/22 08:54:51;;;;;;;7.38;1.70;;;22.70;99.90;;;;;;4993716;28;20026;-58
2022/07/22 08:57:17;;;;;;;7.07;1.67;;;22.90;99.90;;;;;;4995717;28;20030;-58
2022/07/22 08:59:51;;;;;;;4.13;1.42;;;22.70;99.90;;;;;;4989384;28;20441;-59
2022/07/22 09:02:17;;;;;;;5.28;1.25;;;22.50;99.90;;;;;;4990095;28;20018;-58
2022/07/22 09:05:05;;;;;;;5.25;1.20;;;22.60;99.90;;;;;;4996196;28;20045;-58
2022/07/22 09:07:34;;;;;;;5.35;1.50;;;22.70;99.90;;;;;;4989400;28;20336;-59
2022/07/22 09:10:03;;;;;;;4.70;1.73;;;22.70;99.90;;;;;;4991091;28;20129;-58
2022/07/22 09:12:29;;;;;;;4.75;1.05;;;23.20;99.90;;;;;;5001299;28;20356;-59
2022/07/22 09:14:56;;;;;;;7.30;1.42;;;23.60;99.90;;;;;;4999030;28;20038;-61
2022/07/22 09:17:38;;;;;;;7.18;1.90;;;23.50;99.90;;;;;;4993092;28;20046;-59
2022/07/22 09:20:18;;;;;;;7.25;1.80;;;23.70;99.90;;;;;;4986284;28;20073;-59
2022/07/22 09:22:46;;;;;;;5.55;1.40;;;23.70;99.90;;;;;;4988180;28;20034;-59
2022/07/22 09:25:31;;;;;;;4.68;1.33;;;23.50;99.90;;;;;;4992915;28;20033;-58
2022/07/22 09:28:06;;;;;;;5.22;1.33;;;23.30;99.90;;;;;;4995733;28;20084;-59
2022/07/22 09:30:33;;;;;;;5.70;1.10;;;23.20;99.90;;;;;;5003536;28;20069;-60
2022/07/22 09:32:59;;;;;;;6.25;1.23;;;23.10;99.90;;;;;;4995012;28;20085;-58
2022/07/22 09:35:25;;;;;;;3.90;1.20;;;23.10;99.90;;;;;;4993522;28;20038;-58
2022/07/22 09:37:57;;;;;;;4.53;1.35;;;23.10;99.90;;;;;;4991775;28;20062;-59
2022/07/22 09:40:40;;;;;;;7.40;1.30;;;23.20;99.90;;;;;;4993642;28;20045;-58
2022/07/22 09:43:12;;;;;;;3.97;1.10;;;23.30;99.90;;;;;;4993767;28;20034;-59
2022/07/22 09:45:44;;;;;;;5.15;1.55;;;23.40;99.90;;;;;;4981422;28;20033;-58
2022/07/22 09:48:11;;;;;;;4.97;1.10;;;23.50;99.90;;;;;;4991140;28;20038;-59
2022/07/22 09:50:37;;;;;;;6.03;1.40;;;23.50;99.90;;;;;;4992313;28;20042;-58
2022/07/22 09:53:04;;;;;;;6.07;1.52;;;23.60;99.90;;;;;;4992028;28;20076;-58
2022/07/22 09:55:30;;;;;;;7.40;1.30;;;23.50;99.90;;;;;;4994294;28;20113;-59
2022/07/22 09:57:57;;;;;;;6.78;1.52;;;23.50;99.90;;;;;;4993464;28;20026;-59
2022/07/22 10:00:25;;;;;;;6.28;1.75;;;23.80;99.90;;;;;;4989104;28;20540;-58
2022/07/22 10:02:51;;;;;;;5.28;1.33;;;24.00;99.90;;;;;;4988170;28;20022;-57
2022/07/22 10:05:21;;;;;;;4.25;1.17;;;24.00;99.90;;;;;;4985581;28;20037;-58
2022/07/22 10:07:47;;;;;;;3.95;1.52;;;24.40;99.90;;;;;;4989588;28;20041;-59
2022/07/22 10:10:19;;;;;;;5.28;1.50;;;24.70;99.90;;;;;;4989144;28;20030;-59
2022/07/22 10:12:47;;;;;;;;;;;24.60;99.90;;;;;;4993166;28;20026;-59
2022/07/22 10:15:12;;;;;;;4.05;1.40;;;24.70;99.90;;;;;;4989942;28;19909;-59
2022/07/22 10:17:44;;;;;;;5.70;1.30;;;24.80;99.90;;;;;;4987957;28;20027;-59
2022/07/22 10:20:11;;;;;;;3.92;1.25;;;24.90;99.90;;;;;;4986799;28;20044;-58
2022/07/22 10:22:39;;;;;;;10.32;2.22;;;24.90;99.50;;;;;;4979850;28;20517;-59
2022/07/22 10:25:06;;;;;;;7.57;1.45;;;24.80;99.50;;;;;;4991540;28;20034;-59
2022/07/22 10:27:59;;;;;;;5.45;1.15;;;24.60;99.80;;;;;;4992232;28;20029;-59
2022/07/22 10:30:28;;;;;;;6.68;1.50;;;24.40;99.90;;;;;;4986409;28;20054;-59
2022/07/22 10:33:07;;;;;;;10.50;2.10;;;24.20;99.90;;;;;;4990890;28;20565;-59
2022/07/22 10:35:35;;;;;;;10.00;2.05;;;23.70;99.90;;;;;;4987219;28;20085;-58
2022/07/22 10:38:06;;;;;;;4.90;1.42;;;23.50;99.90;;;;;;4989796;28;20026;-59
2022/07/22 10:40:49;;;;;;;8.45;1.50;;;23.20;99.90;;;;;;4986398;28;20050;-59
2022/07/22 10:43:18;;;;;;;5.55;1.40;;;23.00;99.90;;;;;;5001445;28;20030;-59
2022/07/22 10:45:52;;;;;;;5.63;1.75;;;22.80;99.90;;;;;;4995505;28;20033;-59
2022/07/22 10:48:28;;;;;;;6.35;1.25;;;22.80;99.90;;;;;;4999160;28;20030;-59
2022/07/22 10:51:04;;;;;;;5.68;1.67;;;22.80;99.90;;;;;;4992944;28;20046;-61
2022/07/22 10:53:46;;;;;;;6.68;1.70;;;22.70;99.90;;;;;;4990130;28;20084;-59
2022/07/22 10:56:27;;;;;;;8.30;1.60;;;22.60;99.90;;;;;;4994965;28;20033;-59
2022/07/22 10:58:55;;;;;;;4.75;1.45;;;22.50;99.90;;;;;;4987735;28;20102;-59
2022/07/22 11:01:24;;;;;;;5.45;1.67;;;22.50;99.90;;;;;;4988100;28;20561;-58
2022/07/22 11:03:51;;;;;;;4.15;1.70;;;22.40;99.90;;;;;;4991166;28;20029;-59
2022/07/22 11:06:28;;;;;;;4.93;1.70;;;22.40;99.90;;;;;;4996130;28;20049;-59
2022/07/22 11:08:59;;;;;;;9.18;2.10;;;22.30;99.90;;;;;;4986617;28;20039;-60
2022/07/22 11:11:43;;;;;;;4.72;1.60;;;22.10;99.90;;;;;;4989316;28;20514;-59
2022/07/22 11:14:17;;;;;;;13.43;2.03;;;22.10;99.90;;;;;;4992951;28;20022;-59
2022/07/22 11:16:44;;;;;;;6.28;1.67;;;21.90;99.90;;;;;;4981421;28;20026;-59
2022/07/22 11:19:10;;;;;;;10.18;2.13;;;21.70;99.90;;;;;;4991642;28;20025;-59
2022/07/22 11:21:36;;;;;;;7.95;3.20;;;21.70;99.90;;;;;;4988363;28;20410;-58
2022/07/22 11:24:06;;;;;;;9.68;1.85;;;21.40;99.90;;;;;;4994646;28;20030;-59
2022/07/22 11:26:37;;;;;;;6.97;1.98;;;21.10;99.90;;;;;;4995756;28;20073;-59
2022/07/22 11:29:03;;;;;;;5.28;2.25;;;20.80;99.90;;;;;;4992752;28;20026;-59
2022/07/22 11:31:29;;;;;;;7.30;2.00;;;20.70;99.90;;;;;;4995277;28;20517;-60
2022/07/22 11:34:06;;;;;;;16.75;2.40;;;20.50;99.90;;;;;;4991249;28;20513;-59
2022/07/22 11:36:37;;;;;;;8.55;2.63;;;20.40;99.90;;;;;;4983935;28;20080;-60
2022/07/22 11:39:03;;;;;;;9.15;2.40;;;20.40;99.90;;;;;;4994989;28;20073;-60
2022/07/22 11:41:30;;;;;;;4.72;2.00;;;20.40;99.90;;;;;;4996650;28;20026;-60
2022/07/22 11:43:57;;;;;;;5.47;2.40;;;20.30;99.90;;;;;;4993352;28;20038;-60
2022/07/22 11:46:25;;;;;;;7.80;2.15;;;20.20;99.90;;;;;;4994857;28;20501;-58
2022/07/22 11:48:52;;;;;;;6.28;1.85;;;20.20;99.90;;;;;;4989249;28;20030;-58
2022/07/22 11:51:18;;;;;;;9.00;2.55;;;20.40;99.90;;;;;;5004485;28;20100;-58
2022/07/22 11:53:43;;;;;;;6.88;2.78;;;20.50;99.90;;;;;;5000974;28;20434;-58
2022/07/22 11:56:11;;;;;;;7.18;2.40;;;20.70;99.90;;;;;;4996879;28;20030;-59
2022/07/22 11:58:42;;;;;;;9.38;2.13;;;21.00;99.90;;;;;;4991650;28;20547;-61
2022/07/22 12:01:10;;;;;;;10.15;1.95;;;21.10;99.90;;;;;;4992583;28;20367;-59
2022/07/22 12:03:37;;;;;;;7.88;2.47;;;21.20;99.90;;;;;;4994153;28;20038;-59
2022/07/22 12:06:14;;;;;;;9.30;2.47;;;21.20;99.90;;;;;;4991160;28;20446;-60
2022/07/22 12:08:43;;;;;;;8.27;2.33;;;21.30;99.90;;;;;;4989517;28;20517;-59
2022/07/22 12:11:11;;;;;;;5.03;2.30;;;21.40;99.90;;;;;;4985994;28;20380;-60
2022/07/22 12:13:42;;;;;;;7.85;2.30;;;21.50;99.90;;;;;;4982880;28;20591;-58
2022/07/22 12:16:28;;;;;;;6.53;2.05;;;21.60;99.90;;;;;;4987393;28;20118;-59
2022/07/22 12:19:01;;;;;;;7.57;1.30;;;21.80;99.90;;;;;;4988308;28;20030;-59
2022/07/22 12:21:29;;;;;;;12.02;1.67;;;21.80;99.90;;;;;;4991911;28;20026;-60
2022/07/22 12:24:01;;;;;;;5.25;1.83;;;22.00;99.90;;;;;;4996552;28;20027;-60
2022/07/22 12:26:50;;;;;;;7.53;1.67;;;22.10;99.90;;;;;;4989243;28;20034;-61
2022/07/22 12:29:15;;;;;;;7.68;1.48;;;22.20;99.90;;;;;;4994679;28;20433;-59
2022/07/22 12:31:45;;;;;;;10.75;1.70;;;22.40;99.90;;;;;;4995835;28;20029;-59
2022/07/22 12:34:12;;;;;;;6.22;1.77;;;22.70;99.90;;;;;;4993690;28;20065;-59
2022/07/22 12:36:42;;;;;;;8.50;2.38;;;22.90;99.90;;;;;;4991296;28;20030;-60
2022/07/22 12:39:12;;;;;;;4.10;1.55;;;23.10;99.90;;;;;;4993114;28;20042;-59
2022/07/22 12:41:46;;;;;;;5.72;1.58;;;23.30;99.90;;;;;;4993698;28;20065;-60
2022/07/22 12:44:22;;;;;;;5.78;1.60;;;23.30;99.90;;;;;;4999467;28;20084;-59
2022/07/22 12:46:51;;;;;;;6.88;1.50;;;23.20;99.90;;;;;;4989768;28;20025;-60